createdAt,value
2023-02-19T00:01:12.379Z,3.11
2023-02-19T00:03:39.519Z,3.11
2023-02-19T00:06:07.441Z,3.12
2023-02-19T00:08:34.743Z,3.11
2023-02-19T00:11:02.276Z,3.11
2023-02-19T00:13:28.766Z,3.12
2023-02-19T00:15:56.418Z,3.12
2023-02-19T00:18:23.507Z,3.12
2023-02-19T00:20:49.982Z,3.12
2023-02-19T00:23:16.499Z,3.13
2023-02-19T00:25:42.901Z,3.11
2023-02-19T00:28:09.415Z,3.11
2023-02-19T00:30:35.854Z,3.11
2023-02-19T00:33:02.978Z,3.06
2023-02-19T00:35:29.539Z,3.05
2023-02-19T00:37:56.001Z,3.04
2023-02-19T00:40:25.411Z,3.05
2023-02-19T00:42:53.335Z,3.04
2023-02-19T00:45:19.828Z,3.05
2023-02-19T00:47:46.588Z,3.07
2023-02-19T00:50:13.003Z,3.06
2023-02-19T00:52:39.627Z,3.06
2023-02-19T00:55:06.373Z,3.07
2023-02-19T00:57:32.890Z,3.06
2023-02-19T00:59:59.533Z,3.07
2023-02-19T01:02:26.810Z,3.06
2023-02-19T01:04:53.435Z,3.07
2023-02-19T01:07:20.039Z,3.06
2023-02-19T01:09:46.537Z,3.06
2023-02-19T01:12:13.031Z,3.07
2023-02-19T01:14:39.562Z,3.06
2023-02-19T01:17:07.065Z,3.06
2023-02-19T01:19:33.650Z,3.05
2023-02-19T01:22:00.788Z,3.06
2023-02-19T01:24:29.673Z,3.06
2023-02-19T01:26:56.083Z,3.04
2023-02-19T01:29:22.465Z,3.04
2023-02-19T01:31:49.395Z,3.03
2023-02-19T01:34:15.870Z,3.02
2023-02-19T01:36:42.403Z,3.04
2023-02-19T01:39:10.409Z,3.04
2023-02-19T01:41:38.855Z,3.05
2023-02-19T01:44:12.104Z,3.05
2023-02-19T01:46:39.296Z,3.04
2023-02-19T01:49:13.960Z,3.04
2023-02-19T01:51:43.565Z,3.01
2023-02-19T01:54:13.124Z,3.00
2023-02-19T01:56:42.643Z,3.00
2023-02-19T01:59:09.317Z,3.00
2023-02-19T02:01:39.181Z,2.96
2023-02-19T02:04:07.350Z,2.96
2023-02-19T02:06:36.567Z,2.96
2023-02-19T02:09:21.490Z,2.95
2023-02-19T02:11:49.683Z,2.92
2023-02-19T02:14:21.808Z,2.90
2023-02-19T02:17:08.667Z,2.89
2023-02-19T02:19:45.741Z,2.89
2023-02-19T02:22:18.946Z,2.86
2023-02-19T02:25:04.620Z,2.87
2023-02-19T02:27:39.635Z,2.85
2023-02-19T02:30:06.273Z,2.84
2023-02-19T02:32:40.452Z,2.84
2023-02-19T02:35:11.440Z,2.84
2023-02-19T02:37:40.323Z,2.84
2023-02-19T02:40:07.563Z,2.83
2023-02-19T02:42:35.360Z,2.83
2023-02-19T02:45:35.549Z,2.83
2023-02-19T02:48:38.388Z,2.81
2023-02-19T02:51:14.594Z,2.80
2023-02-19T02:54:25.771Z,2.80
2023-02-19T02:56:54.620Z,2.79
2023-02-19T02:59:23.351Z,2.77
2023-02-19T03:02:12.468Z,2.76
2023-02-19T03:05:10.895Z,2.74
2023-02-19T03:07:40.152Z,2.70
2023-02-19T03:10:08.440Z,2.70
2023-02-19T03:12:54.860Z,2.68
2023-02-19T03:15:42.972Z,2.68
2023-02-19T03:18:30.960Z,2.65
2023-02-19T03:20:58.241Z,2.64
2023-02-19T03:23:47.578Z,2.61
2023-02-19T03:26:17.169Z,2.58
2023-02-19T03:29:11.300Z,2.57
2023-02-19T03:31:41.779Z,2.54
2023-02-19T03:34:12.229Z,2.51
2023-02-19T03:36:48.607Z,2.48
2023-02-19T03:39:17.663Z,2.44
2023-02-19T03:42:00.079Z,2.39
2023-02-19T03:44:29.635Z,2.35
2023-02-19T03:47:03.595Z,2.30
2023-02-19T03:49:41.871Z,2.27
2023-02-19T03:52:08.688Z,2.21
2023-02-19T03:54:38.336Z,2.16
2023-02-19T03:57:20.882Z,2.14
2023-02-19T03:59:55.120Z,2.10
2023-02-19T04:02:29.953Z,2.07
2023-02-19T04:05:06.817Z,2.03
2023-02-19T04:07:36.751Z,1.99
2023-02-19T04:10:04.050Z,1.96
2023-02-19T04:12:31.996Z,1.92
2023-02-19T04:15:08.938Z,1.87
2023-02-19T04:17:54.506Z,1.84
2023-02-19T04:20:22.405Z,1.81
2023-02-19T04:22:49.272Z,1.77
2023-02-19T04:25:15.672Z,1.74
2023-02-19T04:27:44.948Z,1.70
2023-02-19T04:30:12.539Z,1.67
2023-02-19T04:32:39.021Z,1.64
2023-02-19T04:35:05.600Z,1.62
2023-02-19T04:37:32.073Z,1.59
2023-02-19T04:39:58.624Z,1.57
2023-02-19T04:42:25.464Z,1.53
2023-02-19T04:44:51.884Z,1.50
2023-02-19T04:47:18.561Z,1.50
2023-02-19T04:49:45.438Z,1.47
2023-02-19T04:52:12.278Z,1.44
2023-02-19T04:54:38.778Z,1.42
2023-02-19T04:57:05.485Z,1.39
2023-02-19T04:59:31.978Z,1.35
2023-02-19T05:01:58.674Z,1.32
2023-02-19T05:04:25.402Z,1.29
2023-02-19T05:06:51.920Z,1.26
2023-02-19T05:09:18.655Z,1.22
2023-02-19T05:11:45.282Z,1.20
2023-02-19T05:14:11.761Z,1.17
2023-02-19T05:16:38.312Z,1.16
2023-02-19T05:19:05.132Z,1.14
2023-02-19T05:21:34.680Z,1.13
2023-02-19T05:24:01.097Z,1.11
2023-02-19T05:26:30.656Z,1.09
2023-02-19T05:28:57.143Z,1.06
2023-02-19T05:31:24.857Z,1.04
2023-02-19T05:33:52.850Z,1.01
2023-02-19T05:36:21.044Z,1.00
2023-02-19T05:38:48.040Z,0.98
2023-02-19T05:41:15.952Z,0.97
2023-02-19T05:43:43.174Z,0.95
2023-02-19T05:46:11.272Z,0.94
2023-02-19T05:48:37.826Z,0.93
2023-02-19T05:51:05.710Z,0.93
2023-02-19T05:53:32.350Z,0.93
2023-02-19T05:55:59.204Z,0.94
2023-02-19T05:58:26.520Z,0.93
2023-02-19T06:00:52.980Z,0.92
2023-02-19T06:03:19.759Z,0.93
2023-02-19T06:05:46.506Z,0.92
2023-02-19T06:08:13.802Z,0.92
2023-02-19T06:10:41.380Z,0.91
2023-02-19T06:13:08.606Z,0.92
2023-02-19T06:15:35.944Z,0.92
2023-02-19T06:18:02.445Z,0.92
2023-02-19T06:20:29.566Z,0.94
2023-02-19T06:22:56.034Z,0.94
2023-02-19T06:25:23.014Z,0.94
2023-02-19T06:27:49.555Z,0.96
2023-02-19T06:30:16.078Z,0.95
2023-02-19T06:32:42.493Z,0.96
2023-02-19T06:35:08.975Z,0.96
2023-02-19T06:37:35.418Z,0.96
2023-02-19T06:40:01.892Z,0.98
2023-02-19T06:42:31.258Z,0.97
2023-02-19T06:44:57.676Z,0.98
2023-02-19T06:47:25.490Z,0.99
2023-02-19T06:49:54.690Z,1.00
2023-02-19T06:52:21.162Z,1.00
2023-02-19T06:54:47.695Z,1.00
2023-02-19T06:57:14.552Z,1.01
2023-02-19T06:59:43.566Z,1.02
2023-02-19T07:02:15.468Z,1.01
2023-02-19T07:04:41.878Z,1.04
2023-02-19T07:07:10.932Z,1.06
2023-02-19T07:09:38.674Z,1.07
2023-02-19T07:12:05.455Z,1.09
2023-02-19T07:14:35.070Z,1.11
2023-02-19T07:17:01.619Z,1.12
2023-02-19T07:19:29.310Z,1.14
2023-02-19T07:21:55.845Z,1.16
2023-02-19T07:24:22.786Z,1.18
2023-02-19T07:26:49.452Z,1.19
2023-02-19T07:29:15.914Z,1.22
2023-02-19T07:31:43.160Z,1.24
2023-02-19T07:34:10.078Z,1.26
2023-02-19T07:36:36.686Z,1.28
2023-02-19T07:39:03.758Z,1.29
2023-02-19T07:41:30.546Z,1.31
2023-02-19T07:43:58.352Z,1.33
2023-02-19T07:46:27.259Z,1.37
2023-02-19T07:48:53.706Z,1.40
2023-02-19T07:51:20.829Z,1.42
2023-02-19T07:53:48.428Z,1.44
2023-02-19T07:56:14.984Z,1.45
2023-02-19T07:58:43.542Z,1.45
2023-02-19T08:01:17.686Z,1.46
2023-02-19T08:03:44.996Z,1.47
2023-02-19T08:06:11.777Z,1.46
2023-02-19T08:08:39.244Z,1.47
2023-02-19T08:11:28.103Z,1.47
2023-02-19T08:13:54.721Z,1.49
2023-02-19T08:16:33.264Z,1.50
2023-02-19T08:19:03.847Z,1.54
2023-02-19T08:21:30.262Z,1.58
2023-02-19T08:24:00.044Z,1.61
2023-02-19T08:26:26.642Z,1.64
2023-02-19T08:28:53.328Z,1.67
2023-02-19T08:31:20.087Z,1.69
2023-02-19T08:33:46.851Z,1.73
2023-02-19T08:36:13.557Z,1.77
2023-02-19T08:38:40.213Z,1.81
2023-02-19T08:41:07.352Z,1.84
2023-02-19T08:43:34.470Z,1.89
2023-02-19T08:46:00.952Z,1.95
2023-02-19T08:48:30.471Z,2.00
2023-02-19T08:50:57.864Z,2.05
2023-02-19T08:53:24.776Z,2.09
2023-02-19T08:55:53.585Z,2.14
2023-02-19T08:58:20.447Z,2.20
2023-02-19T09:00:47.269Z,2.25
2023-02-19T09:03:13.900Z,2.31
2023-02-19T09:05:40.846Z,2.35
2023-02-19T09:08:07.441Z,2.39
2023-02-19T09:10:38.205Z,2.45
2023-02-19T09:13:08.184Z,2.51
2023-02-19T09:15:37.601Z,2.56
2023-02-19T09:18:04.274Z,2.60
2023-02-19T09:20:30.735Z,2.64
2023-02-19T09:23:00.054Z,2.69
2023-02-19T09:25:26.757Z,2.74
2023-02-19T09:27:56.316Z,2.80
2023-02-19T09:30:23.229Z,2.82
2023-02-19T09:32:49.868Z,2.88
2023-02-19T09:35:19.555Z,2.94
2023-02-19T09:37:49.121Z,2.99
2023-02-19T09:40:21.327Z,3.04
2023-02-19T09:42:52.012Z,3.08
2023-02-19T09:45:23.667Z,3.13
2023-02-19T09:47:53.854Z,3.17
2023-02-19T09:50:22.721Z,3.22
2023-02-19T09:53:02.715Z,3.27
2023-02-19T09:55:34.845Z,3.31
2023-02-19T09:58:03.530Z,3.35
2023-02-19T10:00:36.972Z,3.40
2023-02-19T10:03:18.941Z,3.45
2023-02-19T10:05:47.891Z,3.50
2023-02-19T10:08:18.126Z,3.53
2023-02-19T10:10:45.195Z,3.56
2023-02-19T10:13:17.307Z,3.63
2023-02-19T10:15:51.507Z,3.69
2023-02-19T10:18:25.822Z,3.74
2023-02-19T10:20:53.038Z,3.79
2023-02-19T10:23:20.099Z,3.85
2023-02-19T10:25:50.034Z,3.91
2023-02-19T10:28:22.445Z,3.98
2023-02-19T10:30:54.881Z,4.01
2023-02-19T10:33:21.673Z,4.06
2023-02-19T10:35:50.990Z,4.11
2023-02-19T10:38:18.294Z,4.17
2023-02-19T10:40:49.147Z,4.23
2023-02-19T10:43:31.045Z,4.28
2023-02-19T10:45:58.562Z,4.36
2023-02-19T10:48:28.627Z,4.43
2023-02-19T10:50:58.277Z,4.47
2023-02-19T10:53:39.982Z,4.49
2023-02-19T10:56:08.042Z,4.49
2023-02-19T10:58:36.836Z,4.55
2023-02-19T11:01:10.946Z,4.54
2023-02-19T11:03:37.694Z,4.57
2023-02-19T11:06:06.594Z,4.60
2023-02-19T11:08:38.732Z,4.61
2023-02-19T11:11:06.393Z,4.62
2023-02-19T11:13:37.917Z,4.62
2023-02-19T11:16:05.145Z,4.65
2023-02-19T11:18:32.798Z,4.68
2023-02-19T11:21:04.784Z,4.68
2023-02-19T11:23:34.910Z,4.70
2023-02-19T11:26:06.540Z,4.73
2023-02-19T11:28:37.316Z,4.75
2023-02-19T11:31:23.651Z,4.78
2023-02-19T11:33:57.951Z,4.84
2023-02-19T11:36:31.287Z,4.85
2023-02-19T11:38:59.060Z,4.89
2023-02-19T11:41:37.696Z,4.93
2023-02-19T11:44:07.131Z,4.97
2023-02-19T11:46:46.539Z,5.00
2023-02-19T11:49:17.474Z,5.05
2023-02-19T11:51:57.688Z,5.06
2023-02-19T11:54:43.396Z,5.09
2023-02-19T11:57:19.737Z,5.11
2023-02-19T11:59:55.441Z,5.14
2023-02-19T12:02:40.956Z,5.20
2023-02-19T12:05:23.240Z,5.22
2023-02-19T12:07:52.882Z,5.25
2023-02-19T12:10:23.507Z,5.26
2023-02-19T12:13:19.704Z,5.29
2023-02-19T12:15:49.262Z,5.31
2023-02-19T12:18:34.682Z,5.33
2023-02-19T12:21:10.515Z,5.38
2023-02-19T12:24:01.171Z,5.40
2023-02-19T12:26:35.489Z,5.42
2023-02-19T12:29:07.830Z,5.44
2023-02-19T12:31:37.482Z,5.46
2023-02-19T12:34:13.131Z,5.47
2023-02-19T12:36:51.704Z,5.53
2023-02-19T12:39:27.423Z,5.54
2023-02-19T12:42:03.406Z,5.56
2023-02-19T12:44:42.366Z,5.57
2023-02-19T12:47:15.958Z,5.59
2023-02-19T12:49:47.199Z,5.60
2023-02-19T12:52:20.521Z,5.60
2023-02-19T12:54:55.765Z,5.62
2023-02-19T12:57:35.969Z,5.63
2023-02-19T13:00:22.425Z,5.66
2023-02-19T13:02:54.589Z,5.71
2023-02-19T13:05:31.615Z,5.72
2023-02-19T13:08:00.800Z,5.73
2023-02-19T13:10:41.223Z,5.74
2023-02-19T13:13:15.562Z,5.76
2023-02-19T13:15:44.213Z,5.79
2023-02-19T13:18:17.279Z,5.80
2023-02-19T13:20:44.819Z,5.81
2023-02-19T13:23:44.555Z,5.80
2023-02-19T13:26:14.313Z,5.82
2023-02-19T13:28:59.605Z,5.85
2023-02-19T13:31:26.233Z,5.86
2023-02-19T13:34:13.109Z,5.86
2023-02-19T13:36:40.256Z,5.86
2023-02-19T13:39:07.077Z,5.85
2023-02-19T13:41:38.346Z,5.86
2023-02-19T13:44:06.590Z,5.88
2023-02-19T13:46:34.661Z,5.91
2023-02-19T13:49:27.502Z,5.92
2023-02-19T13:52:23.137Z,5.91
2023-02-19T13:54:50.006Z,5.94
2023-02-19T13:57:25.264Z,5.94
2023-02-19T13:59:52.791Z,5.95
2023-02-19T14:02:22.028Z,5.94
2023-02-19T14:04:51.078Z,5.93
2023-02-19T14:07:17.465Z,5.93
2023-02-19T14:09:44.040Z,5.90
2023-02-19T14:12:10.677Z,5.89
2023-02-19T14:14:47.482Z,5.87
2023-02-19T14:17:26.051Z,5.86
2023-02-19T14:19:54.091Z,5.84
2023-02-19T14:22:39.579Z,5.81
2023-02-19T14:25:10.064Z,5.81
2023-02-19T14:27:37.829Z,5.81
2023-02-19T14:30:05.059Z,5.82
2023-02-19T14:32:31.636Z,5.81
2023-02-19T14:34:58.180Z,5.86
2023-02-19T14:37:25.552Z,5.91
2023-02-19T14:39:54.509Z,5.95
2023-02-19T14:42:23.435Z,5.99
2023-02-19T14:44:55.418Z,6.02
2023-02-19T14:47:24.259Z,6.00
2023-02-19T14:50:02.862Z,5.96
2023-02-19T14:52:37.708Z,5.92
2023-02-19T14:55:08.296Z,5.88
2023-02-19T14:57:43.335Z,5.85
2023-02-19T15:00:24.045Z,5.80
2023-02-19T15:02:51.699Z,5.76
2023-02-19T15:05:19.307Z,5.73
2023-02-19T15:07:45.860Z,5.71
2023-02-19T15:10:13.960Z,5.67
2023-02-19T15:12:48.091Z,5.62
2023-02-19T15:15:22.337Z,5.56
2023-02-19T15:17:50.122Z,5.52
2023-02-19T15:20:18.030Z,5.48
2023-02-19T15:22:46.237Z,5.44
2023-02-19T15:25:20.428Z,5.38
2023-02-19T15:27:47.589Z,5.36
2023-02-19T15:30:19.672Z,5.31
2023-02-19T15:32:53.481Z,5.28
2023-02-19T15:35:21.352Z,5.25
2023-02-19T15:37:47.911Z,5.23
2023-02-19T15:40:15.170Z,5.21
2023-02-19T15:42:45.128Z,5.20
2023-02-19T15:45:22.206Z,5.18
2023-02-19T15:47:54.047Z,5.15
2023-02-19T15:50:28.506Z,5.11
2023-02-19T15:53:09.760Z,5.07
2023-02-19T15:55:39.985Z,5.06
2023-02-19T15:58:21.766Z,5.02
2023-02-19T16:00:50.962Z,5.01
2023-02-19T16:03:18.824Z,4.96
2023-02-19T16:05:45.651Z,4.93
2023-02-19T16:08:12.133Z,4.88
2023-02-19T16:10:41.268Z,4.86
2023-02-19T16:13:08.474Z,4.81
2023-02-19T16:15:35.825Z,4.78
2023-02-19T16:18:02.435Z,4.73
2023-02-19T16:20:33.171Z,4.69
2023-02-19T16:23:02.794Z,4.64
2023-02-19T16:25:33.042Z,4.59
2023-02-19T16:27:59.806Z,4.55
2023-02-19T16:30:28.372Z,4.50
2023-02-19T16:33:13.937Z,4.46
2023-02-19T16:35:40.541Z,4.42
2023-02-19T16:38:15.102Z,4.36
2023-02-19T16:40:55.175Z,4.33
2023-02-19T16:43:24.666Z,4.30
2023-02-19T16:45:51.164Z,4.26
2023-02-19T16:48:19.600Z,4.25
2023-02-19T16:50:46.435Z,4.24
2023-02-19T16:53:20.937Z,4.21
2023-02-19T16:55:47.605Z,4.18
2023-02-19T16:58:16.553Z,4.15
2023-02-19T17:00:43.055Z,4.11
2023-02-19T17:03:11.526Z,4.09
2023-02-19T17:05:38.926Z,4.05
2023-02-19T17:08:25.794Z,4.02
2023-02-19T17:10:52.577Z,3.98
2023-02-19T17:13:19.916Z,3.94
2023-02-19T17:15:46.548Z,3.91
2023-02-19T17:18:13.050Z,3.86
2023-02-19T17:20:40.563Z,3.84
2023-02-19T17:23:07.074Z,3.78
2023-02-19T17:25:33.700Z,3.75
2023-02-19T17:28:00.280Z,3.72
2023-02-19T17:30:27.994Z,3.68
2023-02-19T17:32:54.809Z,3.64
2023-02-19T17:35:21.608Z,3.61
2023-02-19T17:37:48.186Z,3.55
2023-02-19T17:40:32.313Z,3.53
2023-02-19T17:42:59.702Z,3.50
2023-02-19T17:45:26.410Z,3.47
2023-02-19T17:47:53.185Z,3.45
2023-02-19T17:50:21.590Z,3.42
2023-02-19T17:52:48.071Z,3.42
2023-02-19T17:55:18.658Z,3.40
2023-02-19T17:57:48.583Z,3.40
2023-02-19T18:00:16.480Z,3.39
2023-02-19T18:02:45.152Z,3.36
2023-02-19T18:05:11.662Z,3.35
2023-02-19T18:07:38.693Z,3.32
2023-02-19T18:10:06.038Z,3.30
2023-02-19T18:12:32.468Z,3.28
2023-02-19T18:14:58.917Z,3.26
2023-02-19T18:17:28.286Z,3.24
2023-02-19T18:19:55.111Z,3.23
2023-02-19T18:22:21.662Z,3.22
2023-02-19T18:24:49.419Z,3.21
2023-02-19T18:27:16.501Z,3.19
2023-02-19T18:29:42.976Z,3.17
2023-02-19T18:32:09.739Z,3.18
2023-02-19T18:34:36.235Z,3.17
2023-02-19T18:37:02.613Z,3.15
2023-02-19T18:39:29.229Z,3.15
2023-02-19T18:41:57.718Z,3.13
2023-02-19T18:44:25.409Z,3.13
2023-02-19T18:46:52.222Z,3.12
2023-02-19T18:49:18.708Z,3.12
2023-02-19T18:51:45.836Z,3.11
2023-02-19T18:54:13.426Z,3.13
2023-02-19T18:56:49.352Z,3.13
2023-02-19T18:59:16.100Z,3.12
2023-02-19T19:01:45.019Z,3.14
2023-02-19T19:04:11.826Z,3.15
2023-02-19T19:06:38.524Z,3.16
2023-02-19T19:09:05.356Z,3.17
2023-02-19T19:11:32.002Z,3.17
2023-02-19T19:13:58.477Z,3.19
2023-02-19T19:16:25.803Z,3.20
2023-02-19T19:18:53.463Z,3.22
2023-02-19T19:21:20.141Z,3.23
2023-02-19T19:23:47.042Z,3.24
2023-02-19T19:26:15.892Z,3.23
2023-02-19T19:28:44.528Z,3.22
2023-02-19T19:31:12.613Z,3.21
2023-02-19T19:33:39.651Z,3.20
2023-02-19T19:36:06.330Z,3.18
2023-02-19T19:38:33.005Z,3.16
2023-02-19T19:40:59.616Z,3.16
2023-02-19T19:43:27.645Z,3.13
2023-02-19T19:45:54.699Z,3.11
2023-02-19T19:48:21.250Z,3.08
2023-02-19T19:50:47.854Z,3.06
2023-02-19T19:53:14.556Z,3.04
2023-02-19T19:55:40.970Z,3.04
2023-02-19T19:58:07.396Z,3.04
2023-02-19T20:00:33.813Z,3.02
2023-02-19T20:03:00.367Z,3.03
2023-02-19T20:05:26.810Z,3.03
2023-02-19T20:07:54.158Z,3.03
2023-02-19T20:10:20.698Z,3.03
2023-02-19T20:12:47.332Z,3.02
2023-02-19T20:15:13.918Z,3.01
2023-02-19T20:17:40.637Z,2.99
2023-02-19T20:20:07.364Z,2.97
2023-02-19T20:22:34.831Z,2.97
2023-02-19T20:25:01.247Z,2.95
2023-02-19T20:27:27.659Z,2.94
2023-02-19T20:29:54.197Z,2.91
2023-02-19T20:32:20.716Z,2.89
2023-02-19T20:34:47.770Z,2.88
2023-02-19T20:37:14.512Z,2.87
2023-02-19T20:39:40.998Z,2.85
2023-02-19T20:42:07.466Z,2.84
2023-02-19T20:44:34.158Z,2.83
2023-02-19T20:47:00.946Z,2.83
2023-02-19T20:49:29.120Z,2.82
2023-02-19T20:51:58.109Z,2.82
2023-02-19T20:54:26.403Z,2.81
2023-02-19T20:56:54.087Z,2.81
2023-02-19T20:59:22.008Z,2.81
2023-02-19T21:01:48.743Z,2.80
2023-02-19T21:04:15.696Z,2.79
2023-02-19T21:06:42.184Z,2.79
2023-02-19T21:09:08.726Z,2.80
2023-02-19T21:11:35.448Z,2.78
2023-02-19T21:14:01.941Z,2.78
2023-02-19T21:16:29.800Z,2.78
2023-02-19T21:18:56.592Z,2.77
2023-02-19T21:21:25.412Z,2.77
2023-02-19T21:23:52.578Z,2.78
2023-02-19T21:26:19.503Z,2.77
2023-02-19T21:28:45.882Z,2.78
2023-02-19T21:31:12.487Z,2.79
2023-02-19T21:33:39.062Z,2.80
2023-02-19T21:36:05.782Z,2.83
2023-02-19T21:38:32.752Z,2.85
2023-02-19T21:40:59.467Z,2.87
2023-02-19T21:43:25.958Z,2.87
2023-02-19T21:45:52.367Z,2.87
2023-02-19T21:48:18.995Z,2.89
2023-02-19T21:50:45.797Z,2.90
2023-02-19T21:53:15.313Z,2.91
2023-02-19T21:55:57.490Z,2.95
2023-02-19T21:58:24.839Z,2.96
2023-02-19T22:00:51.358Z,2.96
2023-02-19T22:03:17.824Z,2.97
2023-02-19T22:05:44.829Z,2.98
2023-02-19T22:08:11.272Z,2.98
2023-02-19T22:10:40.839Z,3.00
2023-02-19T22:13:07.287Z,3.00
2023-02-19T22:15:33.695Z,3.01
2023-02-19T22:18:00.180Z,3.01
2023-02-19T22:20:26.737Z,3.02
2023-02-19T22:22:53.199Z,3.03
2023-02-19T22:25:19.851Z,3.05
2023-02-19T22:27:46.468Z,3.06
2023-02-19T22:30:13.061Z,3.07
2023-02-19T22:32:40.166Z,3.10
2023-02-19T22:35:06.652Z,3.09
2023-02-19T22:37:33.039Z,3.10
2023-02-19T22:39:59.821Z,3.12
2023-02-19T22:42:26.464Z,3.13
2023-02-19T22:44:52.893Z,3.16
2023-02-19T22:47:19.714Z,3.17
2023-02-19T22:49:46.176Z,3.20
2023-02-19T22:52:12.721Z,3.21
2023-02-19T22:54:39.331Z,3.23
2023-02-19T22:57:08.148Z,3.25
2023-02-19T22:59:34.673Z,3.28
2023-02-19T23:02:01.177Z,3.29
2023-02-19T23:04:27.671Z,3.30
2023-02-19T23:06:54.636Z,3.33
2023-02-19T23:09:26.231Z,3.34
2023-02-19T23:11:53.260Z,3.36
2023-02-19T23:14:20.898Z,3.37
2023-02-19T23:16:48.805Z,3.39
2023-02-19T23:19:15.891Z,3.42
2023-02-19T23:21:43.861Z,3.44
2023-02-19T23:24:10.952Z,3.45
2023-02-19T23:26:42.079Z,3.45
2023-02-19T23:29:08.941Z,3.46
2023-02-19T23:31:35.600Z,3.48
2023-02-19T23:34:02.132Z,3.49
2023-02-19T23:36:28.650Z,3.47
2023-02-19T23:38:55.140Z,3.48
2023-02-19T23:41:21.645Z,3.49
2023-02-19T23:43:48.117Z,3.49
2023-02-19T23:46:17.254Z,3.49
2023-02-19T23:48:44.524Z,3.50
2023-02-19T23:51:11.083Z,3.53
2023-02-19T23:53:37.459Z,3.53
2023-02-19T23:56:06.456Z,3.56
2023-02-19T23:58:33.060Z,3.58
